Time;durP1;ratioP1;P1;durP2;ratioP2;P2;SDS_P1;SDS_P2;PMS_P1;PMS_P2;Temp;Humidity;BMP_temperature;BMP_pressure;BME280_temperature;BME280_humidity;BME280_pressure;Samples;Min_cycle;Max_cycle;Signal;HPM_P1;HPM_P2
2021/05/12 00:02:00;;;;;;;1.42;1.30;;;;;;;9.94;58.57;100389.09;1718437;82;21003;-71
2021/05/12 00:04:27;;;;;;;1.50;1.20;;;;;;;9.92;58.63;100393.17;1737322;82;21107;-72
2021/05/12 00:06:53;;;;;;;3.92;1.40;;;;;;;9.89;58.77;100382.03;1738853;82;22459;-71
2021/05/12 00:09:19;;;;;;;1.47;1.27;;;;;;;9.83;58.94;100391.72;1712978;82;20983;-74
2021/05/12 00:11:45;;;;;;;2.45;1.47;;;;;;;9.79;59.05;100388.48;1728861;82;21653;-71
2021/05/12 00:14:12;;;;;;;1.65;1.20;;;;;;;9.72;59.25;100389.41;1711791;82;21002;-71
2021/05/12 00:16:39;;;;;;;2.55;1.30;;;;;;;9.68;59.24;100386.66;1729588;82;21533;-71
2021/05/12 00:19:05;;;;;;;1.62;1.15;;;;;;;9.65;59.38;100390.86;1739333;82;21748;-71
2021/05/12 00:21:42;;;;;;;3.95;1.30;;;;;;;9.64;59.31;100393.58;1736807;82;20963;-73
2021/05/12 00:24:00;;;;;;;1.77;1.40;;;;;;;9.59;59.49;100389.98;1732344;82;21074;-70
2021/05/12 00:26:36;;;;;;;4.70;1.35;;;;;;;9.56;59.71;100399.45;1737197;82;21086;-70
2021/05/12 00:28:58;;;;;;;2.42;1.20;;;;;;;9.53;59.91;100397.03;1734291;82;21106;-71
2021/05/12 00:31:24;;;;;;;1.40;1.30;;;;;;;9.49;60.16;100394.75;1691647;82;21181;-72
2021/05/12 00:33:50;;;;;;;4.15;1.20;;;;;;;9.44;60.30;100391.95;1706154;82;20963;-71
2021/05/12 00:36:16;;;;;;;3.25;1.20;;;;;;;9.39;60.35;100393.27;1738000;82;21007;-71
2021/05/12 00:38:42;;;;;;;1.50;1.32;;;;;;;9.37;60.65;100395.19;1720323;82;20983;-71
2021/05/12 00:41:09;;;;;;;2.80;1.20;;;;;;;9.30;60.76;100393.47;1713827;82;21070;-71
2021/05/12 00:43:35;;;;;;;3.77;1.30;;;;;;;9.27;60.83;100395.03;1738862;81;21981;-72
2021/05/12 00:46:01;;;;;;;1.57;1.10;;;;;;;9.24;61.00;100399.19;1698865;82;21051;-71
2021/05/12 00:48:27;;;;;;;1.67;0.98;;;;;;;9.22;61.20;100393.67;1739821;82;21058;-71
2021/05/12 00:50:53;;;;;;;3.42;1.25;;;;;;;9.17;61.31;100388.75;1693055;82;21078;-71
2021/05/12 00:53:20;;;;;;;1.20;1.07;;;;;;;9.16;61.39;100395.78;1726141;82;21069;-71
2021/05/12 00:55:47;;;;;;;2.47;1.15;;;;;;;9.14;61.67;100389.80;1729097;82;22430;-72
2021/05/12 00:58:13;;;;;;;1.35;1.10;;;;;;;9.10;61.92;100390.14;1711580;82;21389;-71
2021/05/12 01:00:39;;;;;;;2.50;1.20;;;;;;;9.08;61.96;100392.05;1734621;82;21023;-71
2021/05/12 01:03:06;;;;;;;2.00;1.15;;;;;;;9.07;61.99;100387.27;1738884;82;21026;-71
2021/05/12 01:05:43;;;;;;;1.37;1.10;;;;;;;9.07;62.11;100393.84;1719895;82;21010;-72
2021/05/12 01:08:09;;;;;;;2.10;1.10;;;;;;;9.05;62.18;100394.41;1733616;82;21748;-71
2021/05/12 01:10:36;;;;;;;1.17;1.07;;;;;;;9.03;62.22;100387.11;1718457;82;21050;-71
2021/05/12 01:13:02;;;;;;;2.37;0.90;;;;;;;8.99;62.32;100385.66;1739088;82;21045;-71
2021/05/12 01:15:30;;;;;;;1.87;1.10;;;;;;;8.97;62.35;100387.53;1699575;83;21006;-71
2021/05/12 01:18:19;;;;;;;2.50;1.40;;;;;;;8.96;62.47;100384.54;1707814;83;21046;-71
2021/05/12 01:20:56;;;;;;;3.42;1.05;;;;;;;8.93;62.51;100379.50;1719543;82;21790;-71
2021/05/12 01:23:25;;;;;;;1.92;1.10;;;;;;;8.91;62.71;100376.15;1735751;82;21578;-71
2021/05/12 01:25:53;;;;;;;2.65;1.05;;;;;;;8.86;62.73;100383.52;1735930;81;21457;-71
2021/05/12 01:28:22;;;;;;;1.90;1.20;;;;;;;8.83;62.92;100377.17;1693308;83;21961;-71
2021/05/12 01:31:20;;;;;;;2.42;1.05;;;;;;;8.80;62.98;100367.70;1720505;82;21070;-70
2021/05/12 01:33:49;;;;;;;2.22;0.93;;;;;;;8.79;63.04;100368.66;1720504;82;21786;-71
2021/05/12 01:36:15;;;;;;;1.30;1.00;;;;;;;8.73;63.23;100355.92;1717967;82;21110;-71
2021/05/12 01:38:43;;;;;;;0.90;0.82;;;;;;;8.71;63.28;100358.31;1718821;82;20987;-71
2021/05/12 01:41:10;;;;;;;1.57;1.17;;;;;;;8.70;63.47;100357.95;1729275;82;21492;-71
2021/05/12 01:43:36;;;;;;;2.47;0.85;;;;;;;8.65;63.57;100356.95;1741590;82;21026;-71
2021/05/12 01:46:03;;;;;;;3.80;1.02;;;;;;;8.64;63.66;100360.53;1721199;82;22337;-71
2021/05/12 01:48:30;;;;;;;0.90;0.88;;;;;;;8.60;63.70;100363.88;1722305;82;21152;-71
2021/05/12 01:50:57;;;;;;;2.00;0.90;;;;;;;8.61;63.61;100363.39;1709129;82;21031;-71
2021/05/12 01:53:24;;;;;;;2.77;0.95;;;;;;;8.59;63.58;100367.45;1732380;82;21753;-71
2021/05/12 01:55:51;;;;;;;2.27;0.90;;;;;;;8.56;63.68;100367.66;1717603;82;21058;-71
2021/05/12 01:58:17;;;;;;;2.65;1.00;;;;;;;8.54;63.77;100359.51;1719446;82;22421;-71
2021/05/12 02:00:46;;;;;;;0.78;0.70;;;;;;;8.52;63.95;100364.05;1694299;83;21014;-71
2021/05/12 02:03:13;;;;;;;1.10;0.93;;;;;;;8.49;63.98;100362.48;1706833;82;21038;-71
2021/05/12 02:05:40;;;;;;;0.90;0.80;;;;;;;8.50;64.11;100364.64;1719680;82;21090;-71
2021/05/12 02:08:10;;;;;;;5.55;0.93;;;;;;;8.44;64.33;100363.27;1700411;83;21034;-71
2021/05/12 02:10:38;;;;;;;0.95;0.93;;;;;;;8.41;64.41;100362.17;1721489;82;21755;-71
2021/05/12 02:13:04;;;;;;;1.15;0.90;;;;;;;8.42;64.44;100363.86;1707204;83;21005;-71
2021/05/12 02:15:30;;;;;;;2.02;0.80;;;;;;;8.41;64.50;100358.23;1720301;82;21011;-71
2021/05/12 02:17:56;;;;;;;2.08;0.80;;;;;;;8.40;64.64;100360.50;1725778;82;21061;-71
2021/05/12 02:20:29;;;;;;;1.37;1.00;;;;;;;8.37;64.69;100359.86;1743522;82;21010;-71
2021/05/12 02:22:58;;;;;;;0.90;0.82;;;;;;;8.33;64.79;100362.67;1739486;82;21736;-71
2021/05/12 02:25:24;;;;;;;2.45;0.90;;;;;;;8.32;64.84;100357.53;1733236;82;20978;-71
2021/05/12 02:27:50;;;;;;;1.40;1.00;;;;;;;8.31;64.93;100357.16;1739873;82;21125;-71
2021/05/12 02:30:17;;;;;;;1.00;0.80;;;;;;;8.30;65.16;100357.64;1719405;83;21006;-71
2021/05/12 02:32:43;;;;;;;0.93;0.80;;;;;;;8.27;65.29;100356.99;1729483;82;21394;-71
2021/05/12 02:35:11;;;;;;;0.75;0.65;;;;;;;8.26;65.48;100358.78;1748679;82;21786;-71
2021/05/12 02:37:37;;;;;;;0.50;0.50;;;;;;;8.28;65.71;100361.30;1748789;82;21081;-71
2021/05/12 02:40:06;;;;;;;0.80;0.50;;;;;;;8.29;65.82;100360.35;1700522;82;20971;-71
2021/05/12 02:42:32;;;;;;;2.25;0.70;;;;;;;8.31;65.98;100363.74;1737792;82;21061;-71
2021/05/12 02:44:59;;;;;;;0.60;0.50;;;;;;;8.31;66.12;100363.27;1743975;82;21049;-71
2021/05/12 02:47:25;;;;;;;1.00;0.40;;;;;;;8.35;66.23;100361.28;1702555;82;21062;-71
2021/05/12 02:49:51;;;;;;;0.78;0.50;;;;;;;8.41;66.23;100362.17;1729581;82;21014;-71
2021/05/12 02:52:17;;;;;;;0.37;0.37;;;;;;;8.46;66.08;100360.52;1742270;82;21552;-71
2021/05/12 02:54:44;;;;;;;0.95;0.57;;;;;;;8.51;66.05;100357.11;1740399;82;20994;-72
2021/05/12 02:57:10;;;;;;;0.75;0.50;;;;;;;8.53;65.96;100359.14;1720133;82;21097;-71
2021/05/12 02:59:36;;;;;;;2.85;0.60;;;;;;;8.54;65.92;100359.03;1702242;83;21840;-71
2021/05/12 03:02:03;;;;;;;0.75;0.50;;;;;;;8.54;65.87;100355.08;1709668;83;21010;-71
2021/05/12 03:04:29;;;;;;;1.00;0.90;;;;;;;8.55;65.82;100343.60;1725035;82;21026;-71
2021/05/12 03:06:58;;;;;;;1.40;1.30;;;;;;;8.56;65.87;100353.66;1743559;82;21074;-71
2021/05/12 03:09:25;;;;;;;1.40;1.30;;;;;;;8.57;65.90;100356.17;1717597;82;20974;-72
2021/05/12 03:11:51;;;;;;;2.55;1.00;;;;;;;8.58;65.78;100349.95;1719747;82;22511;-71
2021/05/12 03:14:18;;;;;;;1.30;0.90;;;;;;;8.57;65.50;100346.95;1738137;82;21061;-71
2021/05/12 03:16:44;;;;;;;2.55;0.70;;;;;;;8.55;65.36;100347.55;1743119;82;20975;-70
2021/05/12 03:19:11;;;;;;;1.57;1.40;;;;;;;8.54;65.32;100356.40;1735793;81;21298;-71
2021/05/12 03:21:37;;;;;;;2.42;1.62;;;;;;;8.53;65.28;100353.88;1735623;82;21062;-70
2021/05/12 03:24:05;;;;;;;3.15;1.40;;;;;;;8.54;65.34;100348.98;1748433;82;21727;-71
2021/05/12 03:26:33;;;;;;;1.52;1.30;;;;;;;8.54;65.36;100341.92;1702473;82;21018;-71
2021/05/12 03:28:59;;;;;;;1.40;1.00;;;;;;;8.57;65.44;100344.80;1729944;82;21062;-71
2021/05/12 03:31:26;;;;;;;3.20;1.17;;;;;;;8.56;65.49;100345.28;1746814;82;21042;-71
2021/05/12 03:33:55;;;;;;;0.98;0.70;;;;;;;8.55;65.53;100341.44;1749538;82;20959;-71
2021/05/12 03:36:21;;;;;;;2.17;1.07;;;;;;;8.56;65.58;100345.75;1731940;82;22663;-71
2021/05/12 03:38:47;;;;;;;1.92;1.20;;;;;;;8.56;65.62;100340.48;1685854;82;21592;-71
2021/05/12 03:41:13;;;;;;;1.00;0.88;;;;;;;8.54;65.63;100330.55;1732994;82;20991;-72
2021/05/12 03:43:40;;;;;;;1.65;0.90;;;;;;;8.55;65.70;100338.81;1741748;81;21019;-71
2021/05/12 03:46:06;;;;;;;2.47;1.12;;;;;;;8.58;65.69;100338.11;1735457;81;21035;-71
2021/05/12 03:48:32;;;;;;;2.22;1.62;;;;;;;8.62;65.83;100333.95;1694284;82;21639;-71
2021/05/12 03:50:59;;;;;;;3.08;2.58;;;;;;;8.67;65.92;100337.92;1734835;81;21603;-72
2021/05/12 03:53:25;;;;;;;2.90;2.60;;;;;;;8.73;66.10;100341.44;1718704;82;21078;-73
2021/05/12 03:55:52;;;;;;;1.92;1.70;;;;;;;8.78;66.03;100339.78;1700754;82;21141;-73
2021/05/12 03:58:18;;;;;;;3.25;1.75;;;;;;;8.83;66.00;100342.94;1717193;82;21034;-70
2021/05/12 04:00:46;;;;;;;1.98;1.75;;;;;;;8.86;66.05;100338.27;1721176;82;21721;-72
2021/05/12 04:03:13;;;;;;;2.12;1.10;;;;;;;8.88;66.00;100342.14;1707645;82;20995;-74
2021/05/12 04:05:39;;;;;;;1.30;0.98;;;;;;;8.86;65.96;100333.00;1729023;82;21003;-72
2021/05/12 04:08:06;;;;;;;1.30;0.70;;;;;;;8.87;65.96;100341.75;1730029;82;21425;-70
2021/05/12 04:10:32;;;;;;;0.62;0.60;;;;;;;8.88;65.92;100350.88;1689059;82;20962;-73
2021/05/12 04:13:00;;;;;;;1.10;1.00;;;;;;;8.85;65.87;100340.55;1695573;82;23580;-75
2021/05/12 04:15:26;;;;;;;1.77;1.50;;;;;;;8.88;65.91;100344.77;1717249;82;21062;-78
2021/05/12 04:17:52;;;;;;;3.83;2.00;;;;;;;8.89;66.01;100345.97;1732138;82;21076;-76
2021/05/12 04:20:20;;;;;;;3.00;2.80;;;;;;;8.91;66.04;100337.95;1738066;82;21572;-73
2021/05/12 04:22:48;;;;;;;1.60;1.42;;;;;;;8.93;66.09;100342.63;1712670;82;21047;-73
2021/05/12 04:25:22;;;;;;;2.92;1.80;;;;;;;8.96;66.11;100341.08;1698812;82;21655;-76
2021/05/12 04:27:48;;;;;;;1.95;1.70;;;;;;;9.02;66.06;100339.32;1704434;82;21067;-75
2021/05/12 04:30:17;;;;;;;2.02;1.00;;;;;;;9.10;66.04;100344.88;1718008;81;21524;-72
2021/05/12 04:32:44;;;;;;;3.75;0.82;;;;;;;9.17;66.05;100342.16;1693881;82;21683;-73
2021/05/12 04:35:13;;;;;;;3.37;0.90;;;;;;;9.24;65.91;100341.68;1738527;82;21508;-72
2021/05/12 04:37:40;;;;;;;1.20;0.75;;;;;;;9.25;65.83;100333.66;1739021;82;21760;-74
2021/05/12 04:40:08;;;;;;;2.00;0.90;;;;;;;9.23;65.96;100339.52;1698786;83;21054;-76
2021/05/12 04:42:35;;;;;;;1.32;0.80;;;;;;;9.23;66.07;100336.05;1699397;82;21492;-70
2021/05/12 04:45:03;;;;;;;1.45;0.72;;;;;;;9.25;66.26;100334.97;1710300;82;20967;-73
2021/05/12 04:47:29;;;;;;;1.65;0.72;;;;;;;9.26;66.36;100334.49;1711348;81;21642;-72
2021/05/12 04:49:55;;;;;;;1.12;0.70;;;;;;;9.32;66.53;100344.11;1706271;82;21664;-72
2021/05/12 04:52:22;;;;;;;0.88;0.70;;;;;;;9.41;66.56;100336.00;1720819;82;21473;-73
2021/05/12 04:54:48;;;;;;;6.12;0.75;;;;;;;9.51;66.67;100338.78;1714054;82;21082;-73
2021/05/12 04:57:14;;;;;;;1.72;0.72;;;;;;;9.59;66.41;100344.32;1712618;82;20998;-74
2021/05/12 04:59:40;;;;;;;2.10;1.00;;;;;;;9.68;66.32;100343.62;1687167;82;22206;-73
2021/05/12 05:02:09;;;;;;;1.45;0.85;;;;;;;9.75;66.15;100344.37;1696546;82;21631;-73
2021/05/12 05:04:39;;;;;;;1.32;0.80;;;;;;;9.84;66.11;100350.70;1725497;82;21133;-73
2021/05/12 05:07:04;;;;;;;1.00;0.80;;;;;;;9.90;65.91;100345.45;1707815;82;20991;-74
2021/05/12 05:09:30;;;;;;;3.15;0.90;;;;;;;9.97;65.70;100351.94;1706867;82;21015;-74
2021/05/12 05:11:57;;;;;;;3.08;0.88;;;;;;;10.00;65.64;100352.53;1707415;82;21042;-73
2021/05/12 05:14:23;;;;;;;2.15;0.70;;;;;;;10.05;65.71;100352.20;1704309;83;21731;-73
2021/05/12 05:16:49;;;;;;;1.20;0.90;;;;;;;10.15;65.58;100358.44;1705971;84;21086;-73
2021/05/12 05:19:15;;;;;;;1.95;0.80;;;;;;;10.23;65.42;100352.12;1709300;82;21063;-76
2021/05/12 05:21:42;;;;;;;3.70;0.88;;;;;;;10.32;65.27;100356.64;1709126;82;20983;-73
2021/05/12 05:24:09;;;;;;;3.58;0.90;;;;;;;10.40;64.92;100356.53;1728028;82;21027;-72
2021/05/12 05:26:36;;;;;;;1.27;0.90;;;;;;;10.42;64.58;100356.80;1711897;82;22687;-73
2021/05/12 05:29:03;;;;;;;3.27;0.82;;;;;;;10.47;64.43;100355.09;1713501;82;21011;-73
2021/05/12 05:31:29;;;;;;;2.27;0.70;;;;;;;10.55;64.36;100352.20;1707244;82;20999;-72
2021/05/12 05:34:14;;;;;;;1.30;0.72;;;;;;;10.62;63.88;100359.66;1706899;82;21513;-72
2021/05/12 05:36:58;;;;;;;0.82;0.60;;;;;;;10.68;63.75;100360.47;1734907;81;21059;-72
2021/05/12 05:39:36;;;;;;;0.75;0.50;;;;;;;10.68;62.97;100365.27;1692191;82;22450;-73
2021/05/12 05:42:21;;;;;;;0.68;0.50;;;;;;;10.70;62.98;100361.17;1704888;82;21098;-72
2021/05/12 05:45:07;;;;;;;0.40;0.40;;;;;;;10.73;62.71;100363.59;1720560;82;21083;-73
2021/05/12 05:47:52;;;;;;;2.67;0.40;;;;;;;10.73;62.46;100365.75;1697811;82;21485;-73
2021/05/12 05:50:37;;;;;;;0.80;0.35;;;;;;;10.78;62.51;100362.24;1730427;82;21572;-73
2021/05/12 05:53:22;;;;;;;2.37;0.30;;;;;;;10.84;62.19;100356.95;1724411;82;21720;-72
2021/05/12 05:56:07;;;;;;;2.67;0.30;;;;;;;10.83;62.27;100364.05;1699787;82;21070;-73
2021/05/12 05:58:44;;;;;;;0.95;0.40;;;;;;;10.86;62.07;100366.91;1672493;84;21038;-73
2021/05/12 06:01:30;;;;;;;1.37;0.60;;;;;;;10.83;61.45;100368.02;1722271;81;21634;-73
2021/05/12 06:03:56;;;;;;;3.33;0.45;;;;;;;10.84;61.44;100362.24;1718877;82;21098;-71
2021/05/12 06:06:41;;;;;;;0.57;0.30;;;;;;;10.91;61.66;100365.23;1685524;83;21106;-70
2021/05/12 06:09:26;;;;;;;1.05;0.30;;;;;;;11.05;61.62;100363.14;1715457;82;21082;-71
2021/05/12 06:12:11;;;;;;;0.28;0.20;;;;;;;11.15;61.35;100361.42;1714000;82;21003;-72
2021/05/12 06:14:55;;;;;;;0.88;0.30;;;;;;;11.24;60.91;100351.90;1713798;83;21604;-72
2021/05/12 06:17:40;;;;;;;3.15;0.40;;;;;;;11.39;60.94;100358.58;1686068;82;20972;-72
2021/05/12 06:20:25;;;;;;;4.05;0.70;;;;;;;11.57;60.47;100357.98;1714409;82;21785;-73
2021/05/12 06:23:09;;;;;;;0.53;0.28;;;;;;;11.68;59.89;100362.75;1713716;82;21023;-72
2021/05/12 06:25:54;;;;;;;1.00;0.55;;;;;;;11.79;59.45;100359.69;1713601;82;21030;-72
2021/05/12 06:28:42;;;;;;;2.40;0.23;;;;;;;11.87;59.13;100354.12;1705446;82;21039;-72
2021/05/12 06:31:27;;;;;;;1.17;0.28;;;;;;;11.95;58.87;100356.09;1713931;82;21042;-72
2021/05/12 06:34:12;;;;;;;0.60;0.20;;;;;;;12.00;58.11;100342.84;1690059;83;21730;-70
2021/05/12 06:36:57;;;;;;;1.37;0.40;;;;;;;11.91;58.16;100346.27;1703123;82;21627;-72
2021/05/12 06:39:41;;;;;;;6.33;0.70;;;;;;;11.93;58.18;100348.78;1724339;82;20971;-73
2021/05/12 06:42:08;;;;;;;0.30;0.30;;;;;;;11.90;58.01;100347.73;1725633;82;21118;-70
2021/05/12 06:44:34;;;;;;;0.45;0.37;;;;;;;11.83;57.89;100346.56;1719205;82;20967;-72
2021/05/12 06:47:00;;;;;;;2.72;0.33;;;;;;;11.72;58.06;100348.77;1710906;82;21443;-73
2021/05/12 06:49:27;;;;;;;2.22;0.40;;;;;;;11.68;58.22;100350.02;1737692;82;21053;-73
2021/05/12 06:51:56;;;;;;;0.42;0.30;;;;;;;11.58;58.01;100350.40;1683384;83;21424;-73
2021/05/12 06:54:23;;;;;;;1.60;0.33;;;;;;;11.44;58.15;100351.08;1717282;80;21528;-75
2021/05/12 06:56:50;;;;;;;2.20;0.42;;;;;;;11.36;58.25;100348.23;1710043;82;21022;-77
2021/05/12 06:59:16;;;;;;;0.62;0.40;;;;;;;11.24;58.29;100352.37;1718948;82;21709;-76
2021/05/12 07:01:42;;;;;;;0.53;0.33;;;;;;;11.23;58.76;100355.51;1735029;82;21117;-76
2021/05/12 07:04:08;;;;;;;2.10;0.40;;;;;;;11.28;59.08;100357.27;1715936;82;21101;-71
2021/05/12 07:06:35;;;;;;;0.35;0.30;;;;;;;11.33;58.94;100355.59;1744122;82;21066;-77
2021/05/12 07:09:01;;;;;;;0.70;0.30;;;;;;;11.40;58.76;100353.64;1718869;82;21595;-77
2021/05/12 07:11:29;;;;;;;1.98;0.40;;;;;;;11.44;58.59;100351.56;1688060;82;21141;-77
2021/05/12 07:13:55;;;;;;;1.40;0.50;;;;;;;11.52;58.70;100360.19;1717592;82;21527;-77
2021/05/12 07:16:21;;;;;;;0.68;0.42;;;;;;;11.60;58.44;100361.23;1718653;82;21006;-77
2021/05/12 07:18:48;;;;;;;1.65;0.60;;;;;;;11.66;58.09;100363.34;1719339;82;21054;-77
2021/05/12 07:21:14;;;;;;;0.95;0.50;;;;;;;11.71;58.16;100361.16;1718957;83;20975;-77
2021/05/12 07:23:43;;;;;;;0.62;0.50;;;;;;;11.80;58.04;100351.64;1719238;83;21991;-77
2021/05/12 07:26:09;;;;;;;1.57;0.50;;;;;;;11.88;57.64;100352.32;1719323;82;21624;-76
2021/05/12 07:28:35;;;;;;;0.93;0.60;;;;;;;11.93;57.67;100349.61;1699058;82;21066;-76
2021/05/12 07:31:01;;;;;;;1.07;0.70;;;;;;;11.97;57.48;100349.73;1700969;82;21505;-76
2021/05/12 07:33:28;;;;;;;1.70;0.80;;;;;;;12.00;57.37;100350.78;1719462;83;21033;-77
2021/05/12 07:35:54;;;;;;;1.20;0.80;;;;;;;12.01;57.07;100350.29;1693665;83;21434;-77
2021/05/12 07:38:20;;;;;;;1.55;1.10;;;;;;;11.94;57.01;100349.13;1692278;83;21115;-77
2021/05/12 07:40:46;;;;;;;1.85;0.93;;;;;;;11.91;57.36;100344.11;1719447;82;21053;-77
2021/05/12 07:43:13;;;;;;;3.20;1.05;;;;;;;11.91;57.40;100342.78;1692498;83;20970;-77
2021/05/12 07:45:41;;;;;;;1.72;0.90;;;;;;;11.91;57.61;100337.00;1710841;83;21609;-77
2021/05/12 07:48:10;;;;;;;1.20;0.98;;;;;;;11.97;57.74;100340.95;1685574;84;21525;-77
2021/05/12 07:50:38;;;;;;;1.40;0.90;;;;;;;12.06;57.82;100342.77;1686139;82;21075;-77
2021/05/12 07:53:06;;;;;;;1.20;1.02;;;;;;;12.19;57.71;100341.25;1735376;82;21588;-77
2021/05/12 07:55:33;;;;;;;1.60;1.10;;;;;;;12.29;57.50;100335.51;1692190;83;21006;-77
2021/05/12 07:57:59;;;;;;;1.42;1.05;;;;;;;12.42;57.15;100333.45;1703162;82;21043;-77
2021/05/12 08:00:26;;;;;;;1.87;0.95;;;;;;;12.46;56.53;100332.23;1735334;82;21580;-77
2021/05/12 08:02:52;;;;;;;3.27;1.17;;;;;;;12.50;56.83;100334.95;1714225;82;21019;-76
2021/05/12 08:05:18;;;;;;;1.60;1.20;;;;;;;12.56;56.72;100328.28;1735011;82;21027;-77
2021/05/12 08:07:44;;;;;;;1.60;1.22;;;;;;;12.61;56.75;100336.16;1733285;81;20994;-77
2021/05/12 08:10:11;;;;;;;3.75;1.90;;;;;;;12.68;56.63;100330.33;1705964;82;20955;-77
2021/05/12 08:12:37;;;;;;;3.98;1.90;;;;;;;12.76;56.30;100333.97;1706118;82;21737;-77
2021/05/12 08:15:06;;;;;;;2.33;1.70;;;;;;;12.84;55.53;100334.12;1705863;83;20959;-77
2021/05/12 08:17:32;;;;;;;6.40;2.15;;;;;;;12.90;54.99;100331.40;1709378;83;21003;-76
2021/05/12 08:20:00;;;;;;;2.15;1.82;;;;;;;12.98;55.11;100332.05;1685571;84;21600;-76
2021/05/12 08:22:26;;;;;;;4.17;1.52;;;;;;;13.04;55.11;100327.52;1695926;82;21596;-76
2021/05/12 08:24:52;;;;;;;3.65;1.60;;;;;;;13.12;54.84;100324.53;1710644;82;21067;-76
2021/05/12 08:27:18;;;;;;;1.70;1.37;;;;;;;13.11;54.94;100321.50;1705889;84;21620;-75
2021/05/12 08:29:46;;;;;;;1.65;1.30;;;;;;;13.18;54.79;100321.79;1694400;82;20953;-76
2021/05/12 08:32:15;;;;;;;1.40;1.20;;;;;;;13.23;54.76;100318.28;1711676;82;21031;-76
2021/05/12 08:34:40;;;;;;;3.80;1.82;;;;;;;13.32;54.42;100304.66;1735409;82;22534;-76
2021/05/12 08:37:07;;;;;;;4.65;3.08;;;;;;;13.33;54.03;100304.52;1714448;82;22080;-77
2021/05/12 08:39:34;;;;;;;2.40;1.50;;;;;;;13.47;54.07;100289.97;1729852;82;21613;-76
2021/05/12 08:42:01;;;;;;;5.15;1.60;;;;;;;13.66;53.71;100285.94;1706982;82;21011;-76
2021/05/12 08:44:27;;;;;;;2.87;1.50;;;;;;;13.82;53.41;100281.86;1705845;83;21071;-76
2021/05/12 08:46:54;;;;;;;2.95;1.72;;;;;;;14.00;53.92;100281.45;1713735;82;20959;-77
2021/05/12 08:49:21;;;;;;;2.80;1.47;;;;;;;14.20;53.37;100279.05;1685311;82;21645;-76
2021/05/12 08:51:48;;;;;;;2.30;1.27;;;;;;;14.37;53.60;100277.89;1713698;83;21042;-76
2021/05/12 08:54:14;;;;;;;1.27;1.00;;;;;;;14.39;51.56;100272.80;1680422;83;20971;-76
2021/05/12 08:56:40;;;;;;;1.12;1.02;;;;;;;14.39;50.52;100274.13;1713801;82;20975;-77
2021/05/12 08:59:07;;;;;;;4.12;0.80;;;;;;;14.40;50.84;100274.95;1716598;82;21105;-77
2021/05/12 09:01:33;;;;;;;1.52;0.80;;;;;;;14.57;50.99;100275.02;1713768;82;21750;-77
2021/05/12 09:04:03;;;;;;;1.52;0.70;;;;;;;14.73;49.73;100277.49;1685285;83;21022;-76
2021/05/12 09:06:33;;;;;;;2.83;0.80;;;;;;;14.84;48.60;100271.45;1685439;83;21046;-77
2021/05/12 09:08:59;;;;;;;1.42;0.80;;;;;;;14.96;48.67;100266.77;1685945;82;21045;-77
2021/05/12 09:11:26;;;;;;;2.33;0.80;;;;;;;15.02;47.29;100266.63;1713782;83;21027;-77
2021/05/12 09:13:52;;;;;;;1.10;0.82;;;;;;;14.86;47.25;100265.52;1713824;83;21731;-77
2021/05/12 09:16:29;;;;;;;4.70;0.80;;;;;;;14.68;47.93;100274.47;1728620;82;21177;-77
2021/05/12 09:19:11;;;;;;;2.50;1.00;;;;;;;14.57;48.87;100272.83;1713937;83;21616;-77
2021/05/12 09:21:56;;;;;;;3.00;1.10;;;;;;;14.51;50.12;100267.64;1685330;83;21070;-77
2021/05/12 09:24:39;;;;;;;1.98;1.00;;;;;;;14.59;51.35;100270.88;1713803;82;21027;-78
2021/05/12 09:27:15;;;;;;;8.68;1.15;;;;;;;14.71;51.42;100269.67;1709263;82;22207;-77
2021/05/12 09:29:42;;;;;;;1.30;1.00;;;;;;;14.90;50.73;100256.72;1680567;83;22001;-77
2021/05/12 09:32:13;;;;;;;4.55;0.90;;;;;;;15.02;50.42;100275.94;1713874;83;21541;-77
2021/05/12 09:35:02;;;;;;;2.25;0.93;;;;;;;14.97;50.74;100265.77;1714497;82;21089;-77
2021/05/12 09:37:34;;;;;;;1.40;0.88;;;;;;;15.08;49.97;100262.88;1713869;83;21047;-77
2021/05/12 09:40:07;;;;;;;2.30;1.10;;;;;;;15.31;50.68;100245.91;1698263;82;21653;-76
2021/05/12 09:42:37;;;;;;;3.10;0.88;;;;;;;15.53;50.37;100254.37;1682987;83;21113;-74
2021/05/12 09:45:21;;;;;;;1.82;0.80;;;;;;;15.73;50.11;100258.55;1683863;83;21153;-77
2021/05/12 09:47:58;;;;;;;1.05;0.90;;;;;;;15.91;48.97;100247.80;1685986;84;21576;-75
2021/05/12 09:50:31;;;;;;;0.60;0.60;;;;;;;16.05;47.01;100251.20;1687740;83;20991;-77
2021/05/12 09:53:01;;;;;;;1.17;0.60;;;;;;;16.08;46.57;100246.05;1685424;84;21683;-75
2021/05/12 09:55:49;;;;;;;2.27;0.50;;;;;;;16.18;45.95;100232.09;1699543;82;21515;-76
2021/05/12 09:58:17;;;;;;;;;;;;;;;16.35;45.72;100226.33;1716696;82;21010;-75
2021/05/12 10:00:45;;;;;;;2.60;0.50;;;;;;;16.57;45.19;100234.53;1735136;81;20252;-75
2021/05/12 10:03:12;;;;;;;0.80;0.60;;;;;;;16.72;45.41;100228.10;1714157;82;21490;-76
2021/05/12 10:05:57;;;;;;;1.65;0.57;;;;;;;17.00;46.29;100234.46;1714329;82;21609;-75
2021/05/12 10:08:30;;;;;;;0.50;0.40;;;;;;;17.15;43.29;100227.44;1692708;83;21717;-76
2021/05/12 10:11:01;;;;;;;0.78;0.45;;;;;;;16.85;42.86;100224.44;1685301;84;21062;-76
2021/05/12 10:13:29;;;;;;;4.53;0.60;;;;;;;16.47;44.26;100223.68;1685197;84;21070;-75
2021/05/12 10:15:56;;;;;;;0.82;0.50;;;;;;;16.42;45.40;100218.86;1705854;84;21042;-76
2021/05/12 10:18:22;;;;;;;1.95;0.50;;;;;;;16.70;45.64;100214.10;1706015;82;22529;-76
2021/05/12 10:20:48;;;;;;;0.90;0.60;;;;;;;17.11;44.31;100212.77;1662432;84;21035;-75
2021/05/12 10:23:15;;;;;;;4.60;1.00;;;;;;;17.37;43.17;100210.75;1705879;84;21031;-76
2021/05/12 10:25:41;;;;;;;1.67;0.70;;;;;;;17.61;44.36;100222.37;1702803;83;20986;-75
2021/05/12 10:28:07;;;;;;;0.80;0.70;;;;;;;17.91;45.01;100216.79;1705886;84;21075;-76
2021/05/12 10:30:35;;;;;;;0.90;0.60;;;;;;;18.17;43.31;100212.00;1689627;82;23240;-75
2021/05/12 10:33:01;;;;;;;4.78;0.82;;;;;;;18.11;44.31;100210.02;1735110;82;21466;-76
2021/05/12 10:35:38;;;;;;;3.62;0.70;;;;;;;18.24;43.88;100213.48;1735270;81;21128;-75
2021/05/12 10:38:05;;;;;;;1.60;0.70;;;;;;;17.94;42.71;100208.41;1711609;82;21534;-76
2021/05/12 10:40:35;;;;;;;0.90;0.75;;;;;;;17.52;42.89;100216.20;1685496;82;20975;-76
2021/05/12 10:45:55;;;;;;;1.40;0.90;;;;;;;16.87;45.32;100208.26;1734709;82;21752;-76
2021/05/12 10:48:43;;;;;;;1.02;0.88;;;;;;;17.10;45.62;100203.94;1729839;81;21616;-76
2021/05/12 10:51:26;;;;;;;1.55;1.00;;;;;;;17.31;43.46;100209.25;1676054;82;21071;-76
2021/05/12 10:54:04;;;;;;;1.75;0.90;;;;;;;17.16;43.46;100212.58;1735409;82;21015;-77
2021/05/12 10:56:42;;;;;;;2.05;1.02;;;;;;;16.98;44.25;100205.25;1735188;81;21993;-76
2021/05/12 10:59:12;;;;;;;1.05;0.80;;;;;;;16.90;45.12;100205.28;1715839;81;21086;-75
2021/05/12 11:01:49;;;;;;;1.07;0.78;;;;;;;17.02;44.58;100202.60;1685689;84;21035;-76
2021/05/12 11:04:22;;;;;;;1.00;0.90;;;;;;;17.25;44.30;100195.23;1685657;84;21510;-76
2021/05/12 11:06:55;;;;;;;1.30;0.95;;;;;;;17.59;44.13;100193.16;1685677;84;21042;-76
2021/05/12 11:09:24;;;;;;;1.12;0.90;;;;;;;17.81;43.35;100180.92;1709711;82;21651;-76
2021/05/12 11:11:57;;;;;;;1.37;0.90;;;;;;;17.80;41.55;100184.61;1683282;82;21051;-76
2021/05/12 11:14:32;;;;;;;1.00;0.90;;;;;;;17.72;42.77;100184.13;1685776;84;20983;-75
2021/05/12 11:17:22;;;;;;;2.98;0.80;;;;;;;17.68;43.16;100185.96;1713323;82;21106;-76
2021/05/12 11:19:56;;;;;;;2.45;1.00;;;;;;;17.70;43.87;100183.98;1714224;82;21031;-76
2021/05/12 11:22:42;;;;;;;2.83;1.20;;;;;;;17.88;42.33;100179.23;1704866;82;23406;-76
2021/05/12 11:33:23;;;;;;;2.15;1.00;;;;;;;18.61;43.76;100156.55;1693533;83;21027;-76
2021/05/12 11:35:55;;;;;;;3.83;1.10;;;;;;;19.19;40.61;100152.89;1685659;84;22406;-76
2021/05/12 11:38:18;;;;;;;1.57;1.10;;;;;;;19.07;40.01;100153.86;1698765;82;21565;-75
2021/05/12 11:41:05;;;;;;;1.75;1.10;;;;;;;19.08;41.39;100151.50;1712097;82;20956;-76
2021/05/12 11:43:43;;;;;;;1.40;1.15;;;;;;;19.31;40.80;100152.28;1728192;82;21015;-72
2021/05/12 11:46:26;;;;;;;3.40;1.30;;;;;;;19.41;39.61;100152.84;1720299;81;21556;-75
2021/05/12 11:49:04;;;;;;;2.35;1.67;;;;;;;19.40;40.17;100149.02;1724165;81;23006;-75
2021/05/12 11:51:36;;;;;;;1.82;1.57;;;;;;;19.44;40.66;100151.12;1740530;81;21034;-75
2021/05/12 11:54:23;;;;;;;3.43;1.40;;;;;;;19.31;38.78;100154.13;1707888;81;20994;-75